createdAt,value
2022-12-15T00:02:03.218Z,40.67
2022-12-15T00:04:48.111Z,27.17
2022-12-15T00:07:33.004Z,25.00
2022-12-15T00:10:17.714Z,14.85
2022-12-15T00:13:02.714Z,25.77
2022-12-15T00:15:47.656Z,25.53
2022-12-15T00:18:34.073Z,24.08
2022-12-15T00:21:19.049Z,20.92
2022-12-15T00:24:03.859Z,28.67
2022-12-15T00:26:48.911Z,28.77
2022-12-15T00:29:33.907Z,25.88
2022-12-15T00:32:19.377Z,25.77
2022-12-15T00:35:05.830Z,32.33
2022-12-15T00:37:50.807Z,29.88
2022-12-15T00:40:18.486Z,27.47
2022-12-15T00:42:47.825Z,29.65
2022-12-15T00:45:17.772Z,29.70
2022-12-15T00:47:44.390Z,27.95
2022-12-15T00:50:30.707Z,19.77
2022-12-15T00:53:15.508Z,20.88
2022-12-15T00:56:00.928Z,27.00
2022-12-15T00:58:45.765Z,29.60
2022-12-15T01:01:30.742Z,39.47
2022-12-15T01:04:16.023Z,37.50
2022-12-15T01:07:02.398Z,28.08
2022-12-15T01:09:47.227Z,29.90
2022-12-15T01:12:32.704Z,42.22
2022-12-15T01:15:17.526Z,30.05
2022-12-15T01:18:02.428Z,37.72
2022-12-15T01:20:34.681Z,26.67
2022-12-15T01:23:03.713Z,25.98
2022-12-15T01:25:31.333Z,29.77
2022-12-15T01:27:58.990Z,31.80
2022-12-15T01:30:27.778Z,35.67
2022-12-15T01:32:55.401Z,32.90
2022-12-15T01:35:23.286Z,28.40
2022-12-15T01:37:50.930Z,23.00
2022-12-15T01:40:38.208Z,29.73
2022-12-15T01:43:10.669Z,17.40
2022-12-15T01:45:49.657Z,26.02
2022-12-15T01:48:20.720Z,33.15
2022-12-15T01:50:59.561Z,17.20
2022-12-15T01:53:28.745Z,23.92
2022-12-15T01:55:58.063Z,28.77
2022-12-15T01:58:26.064Z,26.42
2022-12-15T02:00:53.900Z,24.20
2022-12-15T02:03:21.779Z,19.83
2022-12-15T02:05:49.454Z,22.10
2022-12-15T02:08:17.178Z,24.70
2022-12-15T02:10:53.722Z,26.45
2022-12-15T02:13:28.157Z,31.15
2022-12-15T02:15:58.370Z,25.23
2022-12-15T02:18:29.541Z,27.15
2022-12-15T02:20:59.432Z,21.42
2022-12-15T02:23:54.123Z,20.33
2022-12-15T02:26:40.587Z,27.77
2022-12-15T02:29:14.981Z,22.58
2022-12-15T02:31:52.504Z,21.23
2022-12-15T02:34:24.047Z,24.23
2022-12-15T02:36:55.462Z,30.45
2022-12-15T02:39:24.282Z,26.95
2022-12-15T02:41:53.013Z,16.90
2022-12-15T02:44:23.638Z,22.38
2022-12-15T02:47:00.538Z,21.02
2022-12-15T02:49:32.402Z,22.33
2022-12-15T02:52:06.939Z,26.67
2022-12-15T02:54:41.085Z,20.40
2022-12-15T02:57:19.524Z,27.10
2022-12-15T02:59:55.780Z,36.15
2022-12-15T03:02:25.748Z,28.00
2022-12-15T03:04:53.613Z,18.70
2022-12-15T03:07:21.247Z,23.30
2022-12-15T03:09:48.998Z,27.40
2022-12-15T03:12:16.732Z,23.30
2022-12-15T03:14:44.326Z,25.80
2022-12-15T03:17:11.963Z,27.40
2022-12-15T03:19:40.938Z,25.70
2022-12-15T03:22:08.583Z,27.15
2022-12-15T03:24:36.334Z,25.80
2022-12-15T03:27:04.365Z,29.52
2022-12-15T03:29:32.081Z,22.50
2022-12-15T03:31:59.848Z,26.02
2022-12-15T03:34:27.480Z,27.45
2022-12-15T03:36:56.508Z,28.45
2022-12-15T03:39:24.165Z,25.13
2022-12-15T03:41:51.808Z,30.60
2022-12-15T03:44:19.483Z,25.25
2022-12-15T03:46:47.455Z,27.77
2022-12-15T03:49:15.119Z,24.17
2022-12-15T03:51:43.015Z,21.25
2022-12-15T03:54:12.699Z,30.23
2022-12-15T03:56:40.641Z,24.20
2022-12-15T03:59:08.252Z,55.63
2022-12-15T04:01:36.863Z,30.48
2022-12-15T04:04:04.868Z,24.50
2022-12-15T04:06:32.662Z,25.45
2022-12-15T04:09:00.290Z,19.48
2022-12-15T04:11:29.269Z,23.58
2022-12-15T04:13:56.904Z,25.17
2022-12-15T04:16:24.579Z,36.22
2022-12-15T04:19:12.241Z,22.83
2022-12-15T04:21:39.874Z,18.90
2022-12-15T04:24:24.998Z,19.90
2022-12-15T04:27:11.752Z,19.88
2022-12-15T04:29:56.762Z,17.55
2022-12-15T04:32:43.405Z,30.58
2022-12-15T04:35:29.259Z,30.20
2022-12-15T04:40:59.287Z,20.40
2022-12-15T04:43:46.153Z,33.85
2022-12-15T04:46:31.295Z,24.27
2022-12-15T04:49:16.453Z,29.77
2022-12-15T04:52:01.605Z,31.90
2022-12-15T04:54:55.583Z,26.70
2022-12-15T04:57:40.484Z,35.03
2022-12-15T05:00:27.688Z,30.90
2022-12-15T05:03:18.112Z,33.58
2022-12-15T05:06:03.638Z,58.90
2022-12-15T05:08:50.151Z,31.27
2022-12-15T05:11:35.472Z,30.80
2022-12-15T05:14:20.416Z,34.78
2022-12-15T05:17:06.929Z,31.87
2022-12-15T05:19:52.035Z,37.97
2022-12-15T05:22:37.209Z,33.45
2022-12-15T05:25:22.609Z,36.15
2022-12-15T05:28:07.529Z,35.03
2022-12-15T05:30:52.506Z,31.13
2022-12-15T05:33:21.591Z,24.27
2022-12-15T05:35:50.010Z,34.75
2022-12-15T05:38:18.525Z,40.67
2022-12-15T05:40:46.223Z,34.35
2022-12-15T05:43:13.912Z,31.25
2022-12-15T05:45:41.599Z,29.73
2022-12-15T05:48:09.211Z,26.83
2022-12-15T05:50:38.254Z,30.40
2022-12-15T05:53:05.882Z,29.80
2022-12-15T05:55:33.571Z,43.88
2022-12-15T05:58:01.404Z,34.08
2022-12-15T06:00:29.087Z,37.33
2022-12-15T06:02:56.897Z,32.38
2022-12-15T06:05:24.675Z,31.90
2022-12-15T06:07:53.659Z,40.28
2022-12-15T06:10:21.528Z,36.08
2022-12-15T06:12:49.257Z,30.98
2022-12-15T06:15:17.195Z,52.22
2022-12-15T06:17:44.827Z,37.28
2022-12-15T06:20:17.407Z,40.95
2022-12-15T06:22:49.755Z,42.15
2022-12-15T06:25:19.250Z,32.55
2022-12-15T06:27:46.982Z,36.22
2022-12-15T06:30:16.248Z,31.98
2022-12-15T06:32:43.845Z,37.15
2022-12-15T06:35:11.641Z,34.72
2022-12-15T06:37:39.569Z,41.95
2022-12-15T06:40:07.858Z,39.15
2022-12-15T06:42:37.036Z,35.55
2022-12-15T06:45:05.227Z,37.40
2022-12-15T06:47:32.844Z,45.80
2022-12-15T06:50:00.455Z,33.50
2022-12-15T06:52:28.343Z,37.65
2022-12-15T06:54:55.950Z,41.53
2022-12-15T06:57:23.612Z,34.00
2022-12-15T06:59:52.601Z,50.85
2022-12-15T07:02:26.855Z,75.97
2022-12-15T07:04:56.437Z,96.25
2022-12-15T07:07:24.105Z,72.82
2022-12-15T07:09:52.013Z,62.05
2022-12-15T07:12:19.704Z,60.72
2022-12-15T07:14:53.023Z,65.50
2022-12-15T07:17:22.459Z,42.00
2022-12-15T07:19:50.113Z,63.25
2022-12-15T07:22:17.744Z,42.63
2022-12-15T07:24:46.048Z,41.75
2022-12-15T07:27:13.762Z,42.60
2022-12-15T07:29:42.225Z,36.47
2022-12-15T07:32:10.210Z,40.08
2022-12-15T07:34:39.396Z,37.88
2022-12-15T07:37:07.075Z,36.85
2022-12-15T07:39:34.842Z,34.85
2022-12-15T07:42:02.482Z,34.53
2022-12-15T07:44:30.301Z,39.47
2022-12-15T07:46:57.905Z,39.75
2022-12-15T07:49:25.635Z,32.22
2022-12-15T07:51:58.531Z,37.00
2022-12-15T07:54:26.367Z,35.35
2022-12-15T07:56:54.008Z,39.35
2022-12-15T07:59:21.665Z,38.13
2022-12-15T08:01:49.615Z,27.75
2022-12-15T08:04:17.515Z,37.05
2022-12-15T08:06:45.389Z,45.13
2022-12-15T08:09:14.507Z,30.27
2022-12-15T08:11:43.364Z,40.05
2022-12-15T08:14:17.106Z,31.65
2022-12-15T08:16:45.671Z,34.92
2022-12-15T08:19:15.245Z,33.53
2022-12-15T08:21:43.514Z,34.28
2022-12-15T08:24:11.573Z,37.25
2022-12-15T08:26:41.104Z,37.47
2022-12-15T08:29:49.044Z,35.05
2022-12-15T08:31:57.347Z,36.70
2022-12-15T08:34:25.055Z,40.30
2022-12-15T08:36:52.676Z,40.78
2022-12-15T08:39:20.593Z,35.00
2022-12-15T08:41:49.592Z,33.58
2022-12-15T08:44:17.399Z,33.88
2022-12-15T08:46:45.073Z,39.58
2022-12-15T08:49:16.618Z,37.83
2022-12-15T08:51:50.358Z,36.40
2022-12-15T08:54:19.204Z,26.80
2022-12-15T08:56:46.988Z,35.40
2022-12-15T08:59:16.015Z,38.63
2022-12-15T09:01:43.918Z,35.70
2022-12-15T09:04:11.839Z,33.97
2022-12-15T09:06:39.595Z,45.60
2022-12-15T09:09:08.460Z,37.17
2022-12-15T09:11:36.310Z,43.30
2022-12-15T09:14:04.455Z,32.47
2022-12-15T09:16:33.454Z,48.05
2022-12-15T09:19:01.511Z,36.17
2022-12-15T09:21:30.497Z,44.08
2022-12-15T09:24:00.737Z,49.95
2022-12-15T09:26:29.392Z,34.55
2022-12-15T09:28:57.122Z,44.58
2022-12-15T09:31:26.012Z,34.67
2022-12-15T09:33:56.264Z,42.72
2022-12-15T09:36:24.808Z,49.53
2022-12-15T09:38:52.715Z,49.90
2022-12-15T09:41:23.772Z,45.50
2022-12-15T09:43:57.947Z,47.75
2022-12-15T09:46:29.265Z,44.90
2022-12-15T09:48:59.135Z,41.15
2022-12-15T09:51:30.663Z,40.70
2022-12-15T09:53:58.985Z,37.53
2022-12-15T09:56:30.579Z,53.45
2022-12-15T09:59:01.712Z,34.05
2022-12-15T10:01:33.501Z,37.10
2022-12-15T10:04:07.072Z,40.35
2022-12-15T10:06:38.365Z,51.42
2022-12-15T10:09:13.535Z,38.20
2022-12-15T10:11:45.268Z,43.83
2022-12-15T10:14:23.787Z,35.97
2022-12-15T10:16:54.816Z,45.05
2022-12-15T10:19:27.826Z,62.83
2022-12-15T10:21:57.508Z,41.58
2022-12-15T10:25:00.207Z,40.08
2022-12-15T10:27:19.964Z,41.85
2022-12-15T10:29:52.863Z,36.33
2022-12-15T10:32:21.636Z,45.17
2022-12-15T10:34:50.698Z,46.03
2022-12-15T10:37:19.496Z,37.70
2022-12-15T10:39:50.123Z,43.35
2022-12-15T10:42:21.031Z,43.90
2022-12-15T10:44:50.715Z,40.22
2022-12-15T10:47:20.525Z,47.53
2022-12-15T10:49:48.441Z,40.00
2022-12-15T10:52:20.466Z,42.53
2022-12-15T10:54:49.391Z,37.58
2022-12-15T10:57:18.762Z,40.53
2022-12-15T10:59:46.412Z,52.03
2022-12-15T11:02:36.650Z,75.75
2022-12-15T11:05:05.734Z,51.60
2022-12-15T11:07:36.720Z,47.35
2022-12-15T11:10:14.757Z,40.83
2022-12-15T11:13:02.426Z,44.45
2022-12-15T11:15:40.527Z,48.55
2022-12-15T11:18:12.814Z,38.67
2022-12-15T11:20:43.336Z,41.40
2022-12-15T11:23:16.143Z,38.63
2022-12-15T11:25:46.340Z,47.25
2022-12-15T11:28:16.969Z,40.63
2022-12-15T11:30:46.942Z,48.65
2022-12-15T11:33:14.728Z,40.38
2022-12-15T11:35:50.246Z,49.25
2022-12-15T11:40:46.711Z,40.65
2022-12-15T11:43:45.465Z,44.38
2022-12-15T11:46:22.708Z,55.70
2022-12-15T11:48:58.133Z,50.20
2022-12-15T11:51:40.881Z,44.10
2022-12-15T11:54:14.770Z,47.72
2022-12-15T11:56:46.518Z,55.28
2022-12-15T11:59:28.387Z,54.97
2022-12-15T12:02:05.289Z,50.20
2022-12-15T12:04:39.040Z,57.60
2022-12-15T12:07:09.669Z,39.88
2022-12-15T12:09:38.558Z,48.47
2022-12-15T12:12:13.545Z,43.70
2022-12-15T12:14:50.639Z,36.70
2022-12-15T12:17:22.277Z,35.58
2022-12-15T12:19:52.120Z,48.65
2022-12-15T12:22:22.774Z,57.58
2022-12-15T12:24:52.322Z,48.60
2022-12-15T12:27:25.673Z,38.30
2022-12-15T12:29:54.996Z,48.22
2022-12-15T12:32:30.022Z,44.47
2022-12-15T12:37:52.292Z,38.85
2022-12-15T12:40:23.610Z,46.72
2022-12-15T12:42:55.039Z,40.63
2022-12-15T12:45:24.055Z,52.20
2022-12-15T12:47:53.326Z,48.33
2022-12-15T12:50:22.275Z,46.90
2022-12-15T12:52:51.125Z,49.67
2022-12-15T12:55:26.179Z,42.50
2022-12-15T12:57:55.802Z,43.28
2022-12-15T13:00:24.801Z,45.58
2022-12-15T13:03:10.206Z,37.05
2022-12-15T13:05:38.722Z,35.38
2022-12-15T13:08:25.014Z,44.88
2022-12-15T13:10:54.199Z,52.30
2022-12-15T13:13:47.454Z,44.67
2022-12-15T13:16:20.454Z,45.08
2022-12-15T13:19:03.533Z,35.97
2022-12-15T13:22:01.466Z,25.20
2022-12-15T13:24:32.359Z,25.95
2022-12-15T13:27:11.127Z,25.55
2022-12-15T13:29:55.084Z,27.63
2022-12-15T13:32:27.018Z,24.17
2022-12-15T13:34:54.765Z,20.85
2022-12-15T13:37:37.225Z,25.73
2022-12-15T13:40:25.599Z,38.20
2022-12-15T13:42:58.814Z,27.23
2022-12-15T13:45:36.738Z,25.63
2022-12-15T13:48:08.991Z,22.55
2022-12-15T13:50:40.479Z,29.40
2022-12-15T13:56:05.559Z,26.15
2022-12-15T13:58:39.190Z,27.70
2022-12-15T14:01:19.432Z,29.83
2022-12-15T14:03:57.580Z,26.73
2022-12-15T14:06:25.233Z,26.73
2022-12-15T14:08:53.909Z,28.40
2022-12-15T14:14:17.376Z,26.00
2022-12-15T14:16:46.639Z,30.27
2022-12-15T14:19:17.773Z,20.23
2022-12-15T14:21:52.263Z,24.73
2022-12-15T14:24:42.774Z,27.25
2022-12-15T14:27:10.435Z,25.98
2022-12-15T14:29:38.116Z,34.42
2022-12-15T14:32:07.466Z,28.13
2022-12-15T14:34:37.105Z,33.03
2022-12-15T14:37:08.540Z,29.98
2022-12-15T14:39:37.571Z,28.52
2022-12-15T14:42:07.487Z,26.83
2022-12-15T14:44:39.188Z,28.23
2022-12-15T14:47:15.290Z,25.90
2022-12-15T14:49:45.214Z,33.72
2022-12-15T14:52:19.089Z,26.90
2022-12-15T14:54:52.069Z,34.53
2022-12-15T14:57:22.582Z,26.67
2022-12-15T14:59:51.504Z,38.47
2022-12-15T15:02:24.892Z,32.50
2022-12-15T15:03:14.145Z,24.67
2022-12-15T15:04:57.844Z,28.67
2022-12-15T15:07:25.543Z,31.77
2022-12-15T15:09:54.196Z,32.40
2022-12-15T15:12:23.019Z,30.85
2022-12-15T15:14:52.919Z,27.55
2022-12-15T15:17:26.831Z,31.23
2022-12-15T15:19:55.638Z,30.45
2022-12-15T15:22:36.592Z,33.30
2022-12-15T15:25:25.308Z,33.05
2022-12-15T15:27:53.150Z,33.38
2022-12-15T15:30:21.884Z,28.52
2022-12-15T15:32:55.936Z,37.70
2022-12-15T15:35:24.397Z,115.95
2022-12-15T15:37:52.792Z,224.65
2022-12-15T15:40:20.427Z,63.35
2022-12-15T15:42:49.086Z,51.55
2022-12-15T15:45:16.816Z,60.63
2022-12-15T15:47:48.213Z,57.63
2022-12-15T15:50:18.452Z,45.00
2022-12-15T15:52:46.297Z,41.00
2022-12-15T15:55:15.259Z,38.72
2022-12-15T15:57:43.222Z,45.60
2022-12-15T16:00:15.778Z,40.78
2022-12-15T16:02:44.130Z,47.30
2022-12-15T16:05:11.948Z,37.95
2022-12-15T16:07:41.958Z,42.90
2022-12-15T16:10:13.629Z,41.97
2022-12-15T16:12:43.221Z,44.20
2022-12-15T16:15:14.400Z,46.70
2022-12-15T16:17:42.055Z,43.00
2022-12-15T16:20:10.749Z,47.03
2022-12-15T16:22:38.383Z,42.20
2022-12-15T16:25:13.202Z,40.55
2022-12-15T16:27:40.844Z,42.60
2022-12-15T16:30:15.721Z,34.80
2022-12-15T16:32:43.885Z,37.85
2022-12-15T16:35:11.629Z,39.38
2022-12-15T16:37:40.137Z,41.22
2022-12-15T16:40:16.512Z,38.60
2022-12-15T16:42:45.173Z,38.97
2022-12-15T16:45:18.244Z,33.60
2022-12-15T16:47:46.216Z,41.05
2022-12-15T16:50:15.154Z,40.22
2022-12-15T16:52:43.299Z,38.85
2022-12-15T16:55:17.516Z,42.85
2022-12-15T16:57:46.511Z,48.70
2022-12-15T17:00:19.010Z,44.08
2022-12-15T17:02:46.945Z,34.15
2022-12-15T17:05:15.315Z,36.22
2022-12-15T17:07:43.541Z,35.38
2022-12-15T17:10:18.341Z,37.47
2022-12-15T17:12:47.644Z,45.08
2022-12-15T17:15:19.618Z,43.45
2022-12-15T17:17:47.284Z,34.42
2022-12-15T17:20:29.017Z,37.72
2022-12-15T17:22:58.885Z,40.28
2022-12-15T17:26:00.756Z,37.78
2022-12-15T17:28:17.912Z,36.13
2022-12-15T17:30:45.818Z,42.40
2022-12-15T17:33:19.140Z,36.67
2022-12-15T17:35:47.232Z,43.85
2022-12-15T17:38:16.419Z,37.47
2022-12-15T17:40:44.044Z,39.65
2022-12-15T17:43:12.888Z,39.53
2022-12-15T17:45:42.047Z,36.83
2022-12-15T17:48:09.735Z,40.13
2022-12-15T17:50:37.745Z,40.90
2022-12-15T17:53:06.429Z,45.42
2022-12-15T17:55:35.436Z,44.90
2022-12-15T17:58:03.783Z,45.60
2022-12-15T18:00:32.951Z,45.15
2022-12-15T18:03:02.196Z,44.00
2022-12-15T18:05:31.229Z,43.45
2022-12-15T18:07:59.715Z,46.75
2022-12-15T18:10:29.940Z,41.55
2022-12-15T18:12:57.587Z,49.38
2022-12-15T18:15:27.008Z,44.30
2022-12-15T18:17:54.760Z,44.50
2022-12-15T18:20:23.980Z,36.25
2022-12-15T18:22:52.200Z,47.33
2022-12-15T18:25:21.413Z,42.67
2022-12-15T18:27:49.548Z,45.83
2022-12-15T18:30:18.874Z,49.55
2022-12-15T18:32:47.040Z,49.78
2022-12-15T18:35:22.652Z,40.78
2022-12-15T18:37:52.737Z,46.17
2022-12-15T18:40:21.979Z,38.55
2022-12-15T18:42:50.029Z,34.63
2022-12-15T18:45:22.481Z,39.30
2022-12-15T18:47:50.272Z,37.90
2022-12-15T18:50:19.794Z,40.53
2022-12-15T18:52:48.648Z,41.42
2022-12-15T18:55:19.535Z,34.83
2022-12-15T18:57:47.250Z,44.72
2022-12-15T19:00:19.215Z,46.90
2022-12-15T19:02:47.688Z,56.17
2022-12-15T19:05:27.714Z,34.08
2022-12-15T19:07:57.571Z,45.35
2022-12-15T19:10:27.812Z,44.92
2022-12-15T19:12:58.686Z,37.20
2022-12-15T19:15:27.051Z,37.00
2022-12-15T19:18:11.986Z,40.08
2022-12-15T19:20:57.407Z,40.65
2022-12-15T19:23:25.200Z,42.38
2022-12-15T19:25:54.570Z,36.55
2022-12-15T19:28:23.112Z,47.92
2022-12-15T19:30:52.048Z,41.35
2022-12-15T19:33:20.361Z,40.53
2022-12-15T19:35:50.316Z,39.08
2022-12-15T19:38:25.425Z,40.38
2022-12-15T19:40:55.092Z,51.00
2022-12-15T19:43:23.205Z,39.88
2022-12-15T19:45:52.024Z,54.67
2022-12-15T19:48:23.874Z,49.40
2022-12-15T19:50:52.479Z,42.60
2022-12-15T19:53:25.648Z,51.90
2022-12-15T19:55:55.662Z,51.97
2022-12-15T19:58:28.629Z,51.97
2022-12-15T20:00:57.576Z,42.35
2022-12-15T20:03:25.705Z,36.03
2022-12-15T20:05:54.496Z,44.33
2022-12-15T20:08:24.143Z,34.22
2022-12-15T20:10:53.881Z,43.50
2022-12-15T20:13:23.547Z,38.60
2022-12-15T20:15:51.286Z,42.45
2022-12-15T20:18:19.284Z,43.97
2022-12-15T20:20:48.031Z,36.90
2022-12-15T20:23:18.102Z,46.20
2022-12-15T20:25:45.934Z,34.42
2022-12-15T20:28:17.742Z,51.63
2022-12-15T20:30:47.147Z,63.70
2022-12-15T20:33:15.138Z,40.75
2022-12-15T20:35:43.364Z,40.70
2022-12-15T20:38:18.690Z,36.45
2022-12-15T20:40:46.335Z,38.28
2022-12-15T20:43:15.567Z,35.85
2022-12-15T20:45:43.253Z,59.45
2022-12-15T20:48:13.208Z,59.58
2022-12-15T20:50:42.835Z,64.43
2022-12-15T20:53:14.804Z,51.95
2022-12-15T20:55:42.486Z,55.50
2022-12-15T20:58:10.185Z,50.88
2022-12-15T21:00:37.971Z,40.45
2022-12-15T21:03:18.330Z,38.85
2022-12-15T21:05:46.056Z,28.83
2022-12-15T21:08:15.753Z,34.75
2022-12-15T21:10:43.456Z,52.80
2022-12-15T21:13:14.515Z,48.20
2022-12-15T21:15:42.313Z,53.58
2022-12-15T21:18:57.150Z,63.38
2022-12-15T21:21:01.311Z,49.22
2022-12-15T21:23:29.860Z,67.38
2022-12-15T21:25:58.298Z,47.75
2022-12-15T21:28:26.150Z,52.20
2022-12-15T21:30:54.237Z,52.08
2022-12-15T21:33:21.923Z,42.35
2022-12-15T21:35:49.906Z,34.22
2022-12-15T21:38:27.018Z,39.10
2022-12-15T21:40:59.584Z,50.60
2022-12-15T21:43:28.945Z,41.92
2022-12-15T21:45:56.685Z,39.78
2022-12-15T21:48:42.194Z,54.47
2022-12-15T21:51:13.414Z,38.38
2022-12-15T21:53:43.084Z,36.63
2022-12-15T21:56:14.897Z,47.55
2022-12-15T21:58:42.580Z,43.35
2022-12-15T22:01:13.179Z,44.38
2022-12-15T22:03:41.013Z,47.63
2022-12-15T22:06:14.702Z,49.47
2022-12-15T22:08:43.749Z,45.70
2022-12-15T22:11:17.416Z,48.40
2022-12-15T22:13:45.424Z,55.65
2022-12-15T22:16:13.153Z,40.15
2022-12-15T22:18:41.037Z,43.00
2022-12-15T22:21:08.879Z,43.00
2022-12-15T22:23:36.580Z,37.92
2022-12-15T22:26:05.568Z,37.10
2022-12-15T22:28:34.086Z,40.17
2022-12-15T22:31:02.609Z,38.80
2022-12-15T22:33:31.672Z,37.72
2022-12-15T22:35:59.520Z,40.45
2022-12-15T22:38:27.117Z,42.50
2022-12-15T22:40:56.336Z,45.15
2022-12-15T22:43:27.972Z,41.15
2022-12-15T22:45:56.471Z,46.53
2022-12-15T22:48:25.436Z,38.97
2022-12-15T22:50:53.117Z,42.47
2022-12-15T22:53:22.932Z,44.42
2022-12-15T22:55:51.001Z,44.00
2022-12-15T22:58:25.806Z,43.22
2022-12-15T23:00:56.290Z,42.83
2022-12-15T23:03:24.238Z,40.05
2022-12-15T23:05:52.023Z,37.45
2022-12-15T23:08:19.716Z,47.80
2022-12-15T23:11:05.234Z,46.75
2022-12-15T23:13:33.245Z,41.05
2022-12-15T23:16:21.545Z,40.10
2022-12-15T23:18:50.203Z,47.88
2022-12-15T23:21:19.979Z,43.55
2022-12-15T23:23:47.747Z,46.00
2022-12-15T23:26:16.307Z,50.92
2022-12-15T23:28:44.384Z,44.25
2022-12-15T23:31:13.687Z,55.28
2022-12-15T23:33:41.694Z,51.63
2022-12-15T23:36:10.330Z,60.67
2022-12-15T23:38:37.984Z,46.88
2022-12-15T23:41:05.745Z,47.92
2022-12-15T23:43:34.364Z,45.75
2022-12-15T23:46:03.233Z,49.22
2022-12-15T23:48:32.863Z,59.05
2022-12-15T23:51:04.637Z,44.10
2022-12-15T23:53:33.223Z,51.03
2022-12-15T23:56:08.312Z,46.08
2022-12-15T23:58:35.972Z,43.83
